createdAt,value
2022-09-25T00:01:04.314Z,20.33
2022-09-25T00:03:31.541Z,19.73
2022-09-25T00:06:06.597Z,19.05
2022-09-25T00:08:34.295Z,19.55
2022-09-25T00:11:07.372Z,18.15
2022-09-25T00:13:34.228Z,19.60
2022-09-25T00:16:02.967Z,19.77
2022-09-25T00:18:48.477Z,18.48
2022-09-25T00:21:17.653Z,19.75
2022-09-25T00:23:45.521Z,20.75
2022-09-25T00:26:14.556Z,18.58
2022-09-25T00:28:42.566Z,20.15
2022-09-25T00:31:10.544Z,20.58
2022-09-25T00:33:37.464Z,20.55
2022-09-25T00:36:07.092Z,20.88
2022-09-25T00:38:35.481Z,20.73
2022-09-25T00:41:03.661Z,19.95
2022-09-25T00:43:44.904Z,19.63
2022-09-25T00:46:20.653Z,21.30
2022-09-25T00:49:05.898Z,21.02
2022-09-25T00:51:56.871Z,21.52
2022-09-25T00:54:33.050Z,18.13
2022-09-25T00:57:06.481Z,20.02
2022-09-25T00:59:41.204Z,18.35
2022-09-25T01:02:14.093Z,19.25
2022-09-25T01:04:46.048Z,20.98
2022-09-25T01:07:14.853Z,20.88
2022-09-25T01:09:41.937Z,22.20
2022-09-25T01:12:09.444Z,22.95
2022-09-25T01:14:37.284Z,20.00
2022-09-25T01:17:10.642Z,20.88
2022-09-25T01:20:06.638Z,19.33
2022-09-25T01:22:45.646Z,20.08
2022-09-25T01:25:17.892Z,19.40
2022-09-25T01:27:50.744Z,21.67
2022-09-25T01:30:19.941Z,21.65
2022-09-25T01:33:13.265Z,21.05
2022-09-25T01:35:52.893Z,21.05
2022-09-25T01:38:24.121Z,22.65
2022-09-25T01:41:02.156Z,21.70
2022-09-25T01:43:36.634Z,22.13
2022-09-25T01:48:42.540Z,23.38
2022-09-25T01:51:16.894Z,24.83
2022-09-25T01:53:52.279Z,23.35
2022-09-25T01:56:32.584Z,24.40
2022-09-25T01:59:29.981Z,25.60
2022-09-25T02:02:01.173Z,24.02
2022-09-25T02:04:38.386Z,25.70
2022-09-25T02:07:10.063Z,24.27
2022-09-25T02:09:42.687Z,24.60
2022-09-25T02:12:20.229Z,23.77
2022-09-25T02:14:53.904Z,24.02
2022-09-25T02:17:53.091Z,22.55
2022-09-25T02:20:32.561Z,23.40
2022-09-25T02:23:08.958Z,23.27
2022-09-25T02:25:43.988Z,23.20
2022-09-25T02:28:10.868Z,22.83
2022-09-25T02:30:37.823Z,22.52
2022-09-25T02:33:04.571Z,22.08
2022-09-25T02:35:32.764Z,23.60
2022-09-25T02:38:00.130Z,23.38
2022-09-25T02:40:41.785Z,21.95
2022-09-25T02:43:25.462Z,23.38
2022-09-25T02:46:03.695Z,23.88
2022-09-25T02:48:49.448Z,24.25
2022-09-25T02:51:45.032Z,22.55
2022-09-25T02:54:20.978Z,24.55
2022-09-25T02:57:04.188Z,23.35
2022-09-25T02:59:41.953Z,24.30
2022-09-25T03:02:11.766Z,22.27
2022-09-25T03:04:39.931Z,24.58
2022-09-25T03:07:07.295Z,24.85
2022-09-25T03:09:36.778Z,23.15
2022-09-25T03:12:05.078Z,23.98
2022-09-25T03:14:32.906Z,25.17
2022-09-25T03:17:04.656Z,22.90
2022-09-25T03:19:31.959Z,23.60
2022-09-25T03:21:58.966Z,22.83
2022-09-25T03:24:26.299Z,25.23
2022-09-25T03:26:56.500Z,26.15
2022-09-25T03:29:23.515Z,23.98
2022-09-25T03:31:50.242Z,24.02
2022-09-25T03:34:18.974Z,25.02
2022-09-25T03:36:47.438Z,26.42
2022-09-25T03:39:17.642Z,26.02
2022-09-25T03:41:44.529Z,24.90
2022-09-25T03:44:11.437Z,24.63
2022-09-25T03:46:38.316Z,23.13
2022-09-25T03:49:05.538Z,23.30
2022-09-25T03:51:33.501Z,23.33
2022-09-25T03:54:00.452Z,23.33
2022-09-25T03:56:29.681Z,23.58
2022-09-25T03:58:57.221Z,23.52
2022-09-25T04:01:25.815Z,22.45
2022-09-25T04:03:52.653Z,23.95
2022-09-25T04:06:24.326Z,22.95
2022-09-25T04:08:52.997Z,24.90
2022-09-25T04:11:21.572Z,23.83
2022-09-25T04:13:48.496Z,24.60
2022-09-25T04:16:16.706Z,26.02
2022-09-25T04:18:44.212Z,27.73
2022-09-25T04:21:12.903Z,25.20
2022-09-25T04:23:39.818Z,25.17
2022-09-25T04:26:07.762Z,25.67
2022-09-25T04:28:35.558Z,25.83
2022-09-25T04:31:03.655Z,27.60
2022-09-25T04:33:48.628Z,25.20
2022-09-25T04:36:16.946Z,24.73
2022-09-25T04:38:44.166Z,23.60
2022-09-25T04:41:11.182Z,24.88
2022-09-25T04:43:38.430Z,24.50
2022-09-25T04:46:07.533Z,25.42
2022-09-25T04:48:35.660Z,24.05
2022-09-25T04:51:03.441Z,25.30
2022-09-25T04:53:31.492Z,24.42
2022-09-25T04:56:02.589Z,26.88
2022-09-25T04:58:29.670Z,25.52
2022-09-25T05:01:00.731Z,25.23
2022-09-25T05:03:27.679Z,24.10
2022-09-25T05:05:54.548Z,24.85
2022-09-25T05:08:23.096Z,23.90
2022-09-25T05:10:49.780Z,22.75
2022-09-25T05:13:16.518Z,22.83
2022-09-25T05:15:43.364Z,23.73
2022-09-25T05:18:17.212Z,22.65
2022-09-25T05:20:44.050Z,21.73
2022-09-25T05:23:10.984Z,21.23
2022-09-25T05:25:37.719Z,21.98
2022-09-25T05:28:04.835Z,21.30
2022-09-25T05:30:38.607Z,21.30
2022-09-25T05:33:05.703Z,22.05
2022-09-25T05:35:33.070Z,21.13
2022-09-25T05:37:59.939Z,21.75
2022-09-25T05:40:27.453Z,21.17
2022-09-25T05:42:55.276Z,19.88
2022-09-25T05:45:23.802Z,20.13
2022-09-25T05:48:03.458Z,20.02
2022-09-25T05:50:34.091Z,19.65
2022-09-25T05:53:03.859Z,21.67
2022-09-25T05:55:30.857Z,20.60
2022-09-25T05:58:04.912Z,20.02
2022-09-25T06:00:33.295Z,19.60
2022-09-25T06:03:01.175Z,19.45
2022-09-25T06:05:28.003Z,20.63
2022-09-25T06:07:55.815Z,21.38
2022-09-25T06:10:23.282Z,20.73
2022-09-25T06:12:50.016Z,21.75
2022-09-25T06:15:16.782Z,20.95
2022-09-25T06:17:43.541Z,21.55
2022-09-25T06:20:15.814Z,21.02
2022-09-25T06:22:44.368Z,22.98
2022-09-25T06:25:11.129Z,22.65
2022-09-25T06:27:37.849Z,22.77
2022-09-25T06:30:05.775Z,23.05
2022-09-25T06:32:32.720Z,23.58
2022-09-25T06:34:59.453Z,27.95
2022-09-25T06:37:26.202Z,24.67
2022-09-25T06:39:52.922Z,24.50
2022-09-25T06:42:19.624Z,24.80
2022-09-25T06:44:46.374Z,24.48
2022-09-25T06:47:18.270Z,24.98
2022-09-25T06:49:46.242Z,25.30
2022-09-25T06:52:13.203Z,24.10
2022-09-25T06:54:44.051Z,23.33
2022-09-25T06:57:12.515Z,24.17
2022-09-25T06:59:39.767Z,22.75
2022-09-25T07:02:25.431Z,23.15
2022-09-25T07:04:52.878Z,23.70
2022-09-25T07:07:21.098Z,23.55
2022-09-25T07:09:48.822Z,22.77
2022-09-25T07:12:18.423Z,26.20
2022-09-25T07:14:46.873Z,25.33
2022-09-25T07:17:14.699Z,25.02
2022-09-25T07:19:41.507Z,26.30
2022-09-25T07:22:08.231Z,25.45
2022-09-25T07:24:35.383Z,27.70
2022-09-25T07:27:04.494Z,26.63
2022-09-25T07:29:35.432Z,26.15
2022-09-25T07:32:02.702Z,23.30
2022-09-25T07:34:29.465Z,25.10
2022-09-25T07:36:56.150Z,25.80
2022-09-25T07:39:22.849Z,24.23
2022-09-25T07:41:49.988Z,23.65
2022-09-25T07:44:37.996Z,24.40
2022-09-25T07:47:03.771Z,24.45
2022-09-25T07:49:31.360Z,25.52
2022-09-25T07:51:58.063Z,23.88
2022-09-25T07:54:24.892Z,24.70
2022-09-25T07:56:52.471Z,25.85
2022-09-25T07:59:19.205Z,24.70
2022-09-25T08:01:51.070Z,23.67
2022-09-25T08:04:20.367Z,24.65
2022-09-25T08:06:47.074Z,25.63
2022-09-25T08:09:13.799Z,26.08
2022-09-25T08:11:40.611Z,25.20
2022-09-25T08:14:07.772Z,27.88
2022-09-25T08:16:34.575Z,23.42
2022-09-25T08:19:01.556Z,27.20
2022-09-25T08:21:28.382Z,25.88
2022-09-25T08:23:56.489Z,25.88
2022-09-25T08:26:23.454Z,24.60
2022-09-25T08:28:50.861Z,24.50
2022-09-25T08:31:18.247Z,24.67
2022-09-25T08:33:46.654Z,24.20
2022-09-25T08:36:13.484Z,25.02
2022-09-25T08:38:40.386Z,22.48
2022-09-25T08:41:10.509Z,25.30
2022-09-25T08:43:44.830Z,25.98
2022-09-25T08:46:41.620Z,27.65
2022-09-25T08:49:11.251Z,26.48
2022-09-25T08:51:48.699Z,26.25
2022-09-25T08:54:24.942Z,24.50
2022-09-25T08:57:01.470Z,25.80
2022-09-25T08:59:40.572Z,27.48
2022-09-25T09:02:26.414Z,26.67
2022-09-25T09:05:01.084Z,27.52
2022-09-25T09:07:44.267Z,26.27
2022-09-25T09:10:13.865Z,25.75
2022-09-25T09:12:45.145Z,25.55
2022-09-25T09:15:33.889Z,25.83
2022-09-25T09:18:08.917Z,26.90
2022-09-25T09:20:56.608Z,23.30
2022-09-25T09:23:55.761Z,24.92
2022-09-25T09:26:35.708Z,24.73
2022-09-25T09:29:02.569Z,25.67
2022-09-25T09:32:17.152Z,24.15
2022-09-25T09:35:06.185Z,24.52
2022-09-25T09:37:43.560Z,26.02
2022-09-25T09:40:32.279Z,24.50
2022-09-25T09:43:19.259Z,22.63
2022-09-25T09:46:01.171Z,21.40
2022-09-25T09:48:47.071Z,23.02
2022-09-25T09:51:24.035Z,21.88
2022-09-25T09:53:58.622Z,22.50
2022-09-25T09:56:30.360Z,22.50
2022-09-25T09:59:06.343Z,22.73
2022-09-25T10:01:41.279Z,22.40
2022-09-25T10:04:12.585Z,22.45
2022-09-25T10:06:45.222Z,23.63
2022-09-25T10:09:15.536Z,23.10
2022-09-25T10:11:45.568Z,22.60
2022-09-25T10:14:21.851Z,22.27
2022-09-25T10:16:51.511Z,21.80
2022-09-25T10:19:22.209Z,22.75
2022-09-25T10:21:58.611Z,21.58
2022-09-25T10:24:55.346Z,21.33
2022-09-25T10:27:41.334Z,20.10
2022-09-25T10:30:10.961Z,18.20
2022-09-25T10:32:59.732Z,19.77
2022-09-25T10:35:38.774Z,20.55
2022-09-25T10:38:17.243Z,17.92
2022-09-25T10:40:49.266Z,19.88
2022-09-25T10:43:20.591Z,19.00
2022-09-25T10:45:55.589Z,20.27
2022-09-25T10:48:52.241Z,20.27
2022-09-25T10:51:21.244Z,20.55
2022-09-25T10:53:50.485Z,18.48
2022-09-25T10:56:27.018Z,19.20
2022-09-25T10:58:57.542Z,20.35
2022-09-25T11:01:35.401Z,19.05
2022-09-25T11:04:13.619Z,18.00
2022-09-25T11:06:49.124Z,20.20
2022-09-25T11:09:25.590Z,19.08
2022-09-25T11:12:03.977Z,19.67
2022-09-25T11:14:33.805Z,20.88
2022-09-25T11:17:05.835Z,19.88
2022-09-25T11:19:35.778Z,18.63
2022-09-25T11:22:04.746Z,18.38
2022-09-25T11:24:43.537Z,18.83
2022-09-25T11:27:18.617Z,18.15
2022-09-25T11:29:58.516Z,19.85
2022-09-25T11:32:52.648Z,18.30
2022-09-25T11:35:39.700Z,16.92
2022-09-25T11:38:47.469Z,18.20
2022-09-25T11:41:35.647Z,16.55
2022-09-25T11:44:16.222Z,17.60
2022-09-25T11:47:02.088Z,15.18
2022-09-25T11:49:31.961Z,16.73
2022-09-25T11:52:07.607Z,16.42
2022-09-25T11:54:49.147Z,15.80
2022-09-25T11:57:43.606Z,16.67
2022-09-25T12:00:16.407Z,14.65
2022-09-25T12:02:45.924Z,16.33
2022-09-25T12:05:32.247Z,15.43
2022-09-25T12:08:06.994Z,15.02
2022-09-25T12:11:07.996Z,14.95
2022-09-25T12:13:49.427Z,15.13
2022-09-25T12:16:41.866Z,13.95
2022-09-25T12:19:31.081Z,16.50
2022-09-25T12:22:36.199Z,15.48
2022-09-25T12:25:29.532Z,15.13
2022-09-25T12:28:08.664Z,14.77
2022-09-25T12:30:49.730Z,13.40
2022-09-25T12:33:28.517Z,14.90
2022-09-25T12:36:03.296Z,12.88
2022-09-25T12:38:44.336Z,14.07
2022-09-25T12:42:06.128Z,11.60
2022-09-25T12:44:54.899Z,9.43
2022-09-25T12:47:41.339Z,10.48
2022-09-25T12:50:25.972Z,10.48
2022-09-25T12:53:24.899Z,10.68
2022-09-25T12:55:59.607Z,10.57
2022-09-25T12:58:47.004Z,10.95
2022-09-25T13:01:27.252Z,9.85
2022-09-25T13:04:13.138Z,11.40
2022-09-25T13:07:03.914Z,9.88
2022-09-25T13:09:36.257Z,8.85
2022-09-25T13:12:08.722Z,10.27
2022-09-25T13:14:44.371Z,9.18
2022-09-25T13:17:12.827Z,8.88
2022-09-25T13:19:39.888Z,8.52
2022-09-25T13:22:18.207Z,10.35
2022-09-25T13:25:13.989Z,12.10
2022-09-25T13:27:44.153Z,8.52
2022-09-25T13:30:28.922Z,8.63
2022-09-25T13:33:02.900Z,9.20
2022-09-25T13:35:32.906Z,10.15
2022-09-25T13:38:36.184Z,11.00
2022-09-25T13:41:13.396Z,10.52
2022-09-25T13:43:40.386Z,10.55
2022-09-25T13:46:23.654Z,10.30
2022-09-25T13:48:55.719Z,9.95
2022-09-25T13:51:23.123Z,10.50
2022-09-25T13:54:03.516Z,9.98
2022-09-25T13:56:33.346Z,7.43
2022-09-25T13:59:07.702Z,7.78
2022-09-25T14:01:37.909Z,7.78
2022-09-25T14:04:13.807Z,7.97
2022-09-25T14:06:42.276Z,8.43
2022-09-25T14:09:12.297Z,8.13
2022-09-25T14:11:43.039Z,10.10
2022-09-25T14:14:30.197Z,9.65
2022-09-25T14:16:58.605Z,9.27
2022-09-25T14:19:29.624Z,8.63
2022-09-25T14:21:58.824Z,8.98
2022-09-25T14:24:29.110Z,8.52
2022-09-25T14:27:01.211Z,8.10
2022-09-25T14:29:46.042Z,9.73
2022-09-25T14:32:54.658Z,9.15
2022-09-25T14:35:46.572Z,9.15
2022-09-25T14:38:37.219Z,8.90
2022-09-25T14:41:22.548Z,8.85
2022-09-25T14:44:25.611Z,9.30
2022-09-25T14:46:54.394Z,8.90
2022-09-25T14:49:33.683Z,9.35
2022-09-25T14:52:07.722Z,8.80
2022-09-25T14:54:38.951Z,9.18
2022-09-25T14:57:07.975Z,8.52
2022-09-25T14:59:43.435Z,9.32
2022-09-25T15:02:23.800Z,9.52
2022-09-25T15:04:51.062Z,9.18
2022-09-25T15:07:23.109Z,10.00
2022-09-25T15:09:55.130Z,9.20
2022-09-25T15:12:26.807Z,9.73
2022-09-25T15:15:13.235Z,9.85
2022-09-25T15:17:53.329Z,8.73
2022-09-25T15:20:23.037Z,9.43
2022-09-25T15:22:54.944Z,8.98
2022-09-25T15:25:29.815Z,9.48
2022-09-25T15:27:56.820Z,9.02
2022-09-25T15:30:26.675Z,8.93
2022-09-25T15:32:58.532Z,10.07
2022-09-25T15:35:29.178Z,9.60
2022-09-25T15:38:10.807Z,9.48
2022-09-25T15:40:38.300Z,9.75
2022-09-25T15:43:13.474Z,9.50
2022-09-25T15:45:55.949Z,10.05
2022-09-25T15:48:29.860Z,9.82
2022-09-25T15:50:59.550Z,9.55
2022-09-25T15:53:29.127Z,9.32
2022-09-25T15:56:23.197Z,10.35
2022-09-25T16:01:44.175Z,9.48
2022-09-25T16:04:38.962Z,9.68
2022-09-25T16:07:26.963Z,9.70
2022-09-25T16:09:59.647Z,9.80
2022-09-25T16:12:27.349Z,9.60
2022-09-25T16:14:55.175Z,9.27
2022-09-25T16:17:40.632Z,9.85
2022-09-25T16:20:30.221Z,9.57
2022-09-25T16:22:59.984Z,10.30
2022-09-25T16:25:32.040Z,9.43
2022-09-25T16:28:08.173Z,5.97
2022-09-25T16:30:35.793Z,5.15
2022-09-25T16:33:19.775Z,2.72
2022-09-25T16:36:10.590Z,2.50
2022-09-25T16:38:41.305Z,1.60
2022-09-25T16:41:14.469Z,1.88
2022-09-25T16:43:41.422Z,1.85
2022-09-25T16:46:21.394Z,1.73
2022-09-25T16:49:00.566Z,1.58
2022-09-25T16:51:30.133Z,1.35
2022-09-25T16:54:00.191Z,1.70
2022-09-25T16:56:31.995Z,1.73
2022-09-25T16:58:59.280Z,1.70
2022-09-25T17:01:27.902Z,1.77
2022-09-25T17:03:59.607Z,1.75
2022-09-25T17:06:27.132Z,1.90
2022-09-25T17:08:54.004Z,2.40
2022-09-25T17:11:22.115Z,2.92
2022-09-25T17:13:49.874Z,3.45
2022-09-25T17:16:17.235Z,2.55
2022-09-25T17:18:44.141Z,2.17
2022-09-25T17:21:15.157Z,2.45
2022-09-25T17:23:43.699Z,2.47
2022-09-25T17:26:18.392Z,2.50
2022-09-25T17:28:45.196Z,2.53
2022-09-25T17:31:21.177Z,2.85
2022-09-25T17:33:52.597Z,2.70
2022-09-25T17:36:19.697Z,2.90
2022-09-25T17:38:46.474Z,2.83
2022-09-25T17:41:21.883Z,3.08
2022-09-25T17:43:49.300Z,3.33
2022-09-25T17:46:19.068Z,3.80
2022-09-25T17:48:51.594Z,4.05
2022-09-25T17:51:26.508Z,2.75
2022-09-25T17:53:54.317Z,3.00
2022-09-25T17:56:21.852Z,3.33
2022-09-25T17:58:49.057Z,3.10
2022-09-25T18:01:22.420Z,3.50
2022-09-25T18:04:07.407Z,3.45
2022-09-25T18:06:34.161Z,3.53
2022-09-25T18:09:01.021Z,6.88
2022-09-25T18:11:28.939Z,9.32
2022-09-25T18:14:00.980Z,5.65
2022-09-25T18:16:30.680Z,4.68
2022-09-25T18:19:15.902Z,5.10
2022-09-25T18:22:01.587Z,3.63
2022-09-25T18:24:28.989Z,4.10
2022-09-25T18:26:57.817Z,3.67
2022-09-25T18:29:25.199Z,4.13
2022-09-25T18:31:52.960Z,2.70
2022-09-25T18:34:21.703Z,3.05
2022-09-25T18:36:49.840Z,3.10
2022-09-25T18:39:20.216Z,3.25
2022-09-25T18:41:47.865Z,3.03
2022-09-25T18:44:15.071Z,3.10
2022-09-25T18:46:42.352Z,2.90
2022-09-25T18:49:09.413Z,3.20
2022-09-25T18:51:36.196Z,3.35
2022-09-25T18:54:03.864Z,3.20
2022-09-25T18:56:31.793Z,3.28
2022-09-25T18:58:59.552Z,2.80
2022-09-25T19:01:26.538Z,2.90
2022-09-25T19:03:53.412Z,3.78
2022-09-25T19:06:20.872Z,3.40
2022-09-25T19:08:52.872Z,3.22
2022-09-25T19:11:19.776Z,3.50
2022-09-25T19:13:47.572Z,3.45
2022-09-25T19:16:14.410Z,3.38
2022-09-25T19:18:41.254Z,3.30
2022-09-25T19:21:08.306Z,4.45
2022-09-25T19:23:35.509Z,4.10
2022-09-25T19:26:08.536Z,4.25
2022-09-25T19:28:36.099Z,4.03
2022-09-25T19:31:11.774Z,4.10
2022-09-25T19:33:38.852Z,3.63
2022-09-25T19:36:08.371Z,3.25
2022-09-25T19:38:38.141Z,3.63
2022-09-25T19:41:12.610Z,3.78
2022-09-25T19:43:39.797Z,3.92
2022-09-25T19:46:06.932Z,3.40
2022-09-25T19:48:34.603Z,3.90
2022-09-25T19:51:07.696Z,3.83
2022-09-25T19:53:35.347Z,5.40
2022-09-25T19:56:03.152Z,5.80
2022-09-25T19:58:31.695Z,6.40
2022-09-25T20:01:00.535Z,6.40
2022-09-25T20:03:27.986Z,6.65
2022-09-25T20:05:55.206Z,6.05
2022-09-25T20:08:22.545Z,6.60
2022-09-25T20:10:49.483Z,6.85
2022-09-25T20:13:16.287Z,7.60
2022-09-25T20:15:45.674Z,9.27
2022-09-25T20:18:12.495Z,8.98
2022-09-25T20:20:39.890Z,5.28
2022-09-25T20:23:07.792Z,4.82
2022-09-25T20:25:34.686Z,4.70
2022-09-25T20:28:01.548Z,4.68
2022-09-25T20:30:29.256Z,4.20
2022-09-25T20:32:56.057Z,3.55
2022-09-25T20:35:22.776Z,3.50
2022-09-25T20:37:49.472Z,3.90
2022-09-25T20:40:16.508Z,3.80
2022-09-25T20:42:43.653Z,4.20
2022-09-25T20:45:10.979Z,4.57
2022-09-25T20:47:45.852Z,4.00
2022-09-25T20:50:13.110Z,4.05
2022-09-25T20:52:39.928Z,4.28
2022-09-25T20:55:07.184Z,4.20
2022-09-25T20:57:34.023Z,4.80
2022-09-25T21:00:01.939Z,5.28
2022-09-25T21:02:29.865Z,4.65
2022-09-25T21:04:56.960Z,4.65
2022-09-25T21:07:25.521Z,4.75
2022-09-25T21:09:53.230Z,5.00
2022-09-25T21:12:20.306Z,4.68
2022-09-25T21:14:48.730Z,5.03
2022-09-25T21:17:15.565Z,4.20
2022-09-25T21:19:42.420Z,4.20
2022-09-25T21:22:09.151Z,4.22
2022-09-25T21:24:35.928Z,5.30
2022-09-25T21:27:02.620Z,5.30
2022-09-25T21:29:31.793Z,4.85
2022-09-25T21:31:58.571Z,5.63
2022-09-25T21:34:26.451Z,7.95
2022-09-25T21:36:53.228Z,6.32
2022-09-25T21:39:21.382Z,6.47
2022-09-25T21:41:48.663Z,7.68
2022-09-25T21:44:17.431Z,6.85
2022-09-25T21:46:44.438Z,6.28
2022-09-25T21:49:17.325Z,6.57
2022-09-25T21:51:45.704Z,6.03
2022-09-25T21:54:14.520Z,5.95
2022-09-25T21:56:44.275Z,5.68
2022-09-25T21:59:11.368Z,5.28
2022-09-25T22:01:40.063Z,5.72
2022-09-25T22:04:10.198Z,5.82
2022-09-25T22:06:39.746Z,5.40
2022-09-25T22:09:10.152Z,5.63
2022-09-25T22:11:37.966Z,5.20
2022-09-25T22:14:06.205Z,6.25
2022-09-25T22:16:39.004Z,7.97
2022-09-25T22:19:13.379Z,7.60
2022-09-25T22:21:41.319Z,7.65
2022-09-25T22:24:08.427Z,7.43
2022-09-25T22:26:37.263Z,7.65
2022-09-25T22:29:05.184Z,7.28
2022-09-25T22:31:33.735Z,7.38
2022-09-25T22:34:09.120Z,8.70
2022-09-25T22:36:36.574Z,8.73
2022-09-25T22:39:05.417Z,7.30
2022-09-25T22:41:32.911Z,7.75
2022-09-25T22:44:00.984Z,7.65
2022-09-25T22:46:28.492Z,8.25
2022-09-25T22:48:55.814Z,7.80
2022-09-25T22:51:24.814Z,8.15
2022-09-25T22:53:52.856Z,9.13
2022-09-25T22:56:21.021Z,8.23
2022-09-25T22:58:50.356Z,7.47
2022-09-25T23:01:47.109Z,7.47
2022-09-25T23:04:24.791Z,6.95
2022-09-25T23:06:52.426Z,6.25
2022-09-25T23:09:22.244Z,6.53
2022-09-25T23:11:49.323Z,6.50
2022-09-25T23:14:19.724Z,8.18
2022-09-25T23:16:48.633Z,7.97
2022-09-25T23:19:16.162Z,9.32
2022-09-25T23:21:43.204Z,10.20
2022-09-25T23:24:15.791Z,8.93
2022-09-25T23:26:42.996Z,9.52
2022-09-25T23:29:12.578Z,9.40
2022-09-25T23:31:39.488Z,9.07
2022-09-25T23:34:06.232Z,9.40
2022-09-25T23:36:32.928Z,8.73
2022-09-25T23:39:00.683Z,8.50
2022-09-25T23:41:30.183Z,9.75
2022-09-25T23:43:57.781Z,9.20
2022-09-25T23:46:26.397Z,10.52
2022-09-25T23:48:54.272Z,10.60
2022-09-25T23:51:22.899Z,10.63
2022-09-25T23:53:50.434Z,10.55
2022-09-25T23:56:19.995Z,10.60
2022-09-25T23:58:47.592Z,10.43
